createdAt,value
2019-05-06T00:01:01.510Z,81.82
2019-05-06T00:03:27.289Z,81.57
2019-05-06T00:05:54.349Z,81.69
2019-05-06T00:08:20.255Z,81.54
2019-05-06T00:10:46.056Z,82.05
2019-05-06T00:13:13.938Z,82.05
2019-05-06T00:15:39.520Z,81.69
2019-05-06T00:18:05.326Z,81.86
2019-05-06T00:20:31.820Z,81.87
2019-05-06T00:22:59.597Z,82.27
2019-05-06T00:25:27.284Z,82.35
2019-05-06T00:28:11.123Z,82.51
2019-05-06T00:30:38.846Z,82.28
2019-05-06T00:33:04.627Z,82.10
2019-05-06T00:35:30.500Z,82.29
2019-05-06T00:37:56.322Z,82.61
2019-05-06T00:40:26.487Z,82.61
2019-05-06T00:42:54.310Z,82.72
2019-05-06T00:45:20.076Z,83.21
2019-05-06T00:47:45.858Z,83.04
2019-05-06T00:50:14.226Z,83.00
2019-05-06T00:52:39.935Z,83.23
2019-05-06T00:55:05.907Z,83.47
2019-05-06T00:57:44.098Z,83.69
2019-05-06T01:00:13.501Z,83.72
2019-05-06T01:02:39.273Z,83.65
2019-05-06T01:05:05.151Z,83.72
2019-05-06T01:07:30.945Z,83.80
2019-05-06T01:09:56.724Z,83.58
2019-05-06T01:12:23.966Z,84.14
2019-05-06T01:14:51.804Z,83.87
2019-05-06T01:17:17.605Z,84.04
2019-05-06T01:19:45.789Z,84.08
2019-05-06T01:22:11.680Z,84.25
2019-05-06T01:24:37.461Z,83.64
2019-05-06T01:27:04.027Z,84.15
2019-05-06T01:29:29.943Z,84.00
2019-05-06T01:31:55.755Z,84.11
2019-05-06T01:34:21.529Z,83.99
2019-05-06T01:36:47.308Z,84.01
2019-05-06T01:39:24.543Z,83.99
2019-05-06T01:41:54.801Z,84.29
2019-05-06T01:44:20.595Z,84.37
2019-05-06T01:46:46.388Z,84.37
2019-05-06T01:49:13.818Z,84.64
2019-05-06T01:51:39.671Z,84.40
2019-05-06T01:54:05.460Z,84.11
2019-05-06T01:56:33.480Z,84.39
2019-05-06T01:58:58.942Z,84.38
2019-05-06T02:01:25.189Z,84.32
2019-05-06T02:03:51.024Z,84.18
2019-05-06T02:06:16.803Z,84.34
2019-05-06T02:08:44.531Z,84.46
2019-05-06T02:11:10.308Z,84.92
2019-05-06T02:13:36.105Z,84.74
2019-05-06T02:16:03.881Z,84.60
2019-05-06T02:18:29.588Z,84.27
2019-05-06T02:20:57.269Z,84.55
2019-05-06T02:23:36.475Z,85.20
2019-05-06T02:26:02.281Z,85.09
2019-05-06T02:28:28.047Z,85.24
2019-05-06T02:30:58.295Z,85.50
2019-05-06T02:33:31.905Z,85.62
2019-05-06T02:35:59.596Z,85.90
2019-05-06T02:38:35.705Z,85.86
2019-05-06T02:40:54.965Z,85.86
2019-05-06T02:43:23.234Z,85.99
2019-05-06T02:45:48.452Z,85.87
2019-05-06T02:48:16.143Z,85.75
2019-05-06T02:50:46.384Z,85.92
2019-05-06T02:53:13.340Z,85.90
2019-05-06T02:55:39.262Z,85.86
2019-05-06T02:58:05.042Z,85.74
2019-05-06T03:00:33.014Z,85.78
2019-05-06T03:02:58.535Z,85.57
2019-05-06T03:05:24.331Z,85.52
2019-05-06T03:07:50.121Z,85.73
2019-05-06T03:10:17.127Z,85.54
2019-05-06T03:12:43.246Z,86.04
2019-05-06T03:15:09.396Z,86.98
2019-05-06T03:17:35.182Z,87.47
2019-05-06T03:20:04.239Z,87.64
2019-05-06T03:22:49.994Z,88.14
2019-05-06T03:25:17.690Z,88.55
2019-05-06T03:27:47.018Z,89.04
2019-05-06T03:30:16.450Z,89.54
2019-05-06T03:33:13.849Z,89.14
2019-05-06T03:35:25.040Z,89.60
2019-05-06T03:37:34.934Z,89.82
2019-05-06T03:40:02.962Z,89.96
2019-05-06T03:42:28.413Z,90.13
2019-05-06T03:44:56.102Z,90.06
2019-05-06T03:47:23.808Z,89.65
2019-05-06T03:49:54.390Z,89.92
2019-05-06T03:52:19.596Z,89.99
2019-05-06T03:54:45.502Z,89.85
2019-05-06T03:57:13.833Z,89.64
2019-05-06T03:59:39.783Z,89.78
2019-05-06T04:02:05.977Z,89.90
2019-05-06T04:04:33.256Z,90.43
2019-05-06T04:06:59.171Z,89.92
2019-05-06T04:09:24.962Z,90.10
2019-05-06T04:11:53.915Z,89.91
2019-05-06T04:14:19.190Z,89.98
2019-05-06T04:16:47.052Z,89.92
2019-05-06T04:19:17.598Z,89.83
2019-05-06T04:21:45.383Z,89.78
2019-05-06T04:24:13.383Z,89.95
2019-05-06T04:26:46.070Z,89.90
2019-05-06T04:29:09.287Z,89.61
2019-05-06T04:31:35.057Z,89.59
2019-05-06T04:34:09.778Z,89.45
2019-05-06T04:36:29.246Z,89.61
2019-05-06T04:38:55.771Z,89.87
2019-05-06T04:41:26.164Z,89.80
2019-05-06T04:43:49.368Z,89.90
2019-05-06T04:46:16.911Z,89.64
2019-05-06T04:48:43.454Z,89.86
2019-05-06T04:51:09.242Z,89.69
2019-05-06T04:53:35.035Z,89.63
2019-05-06T04:56:03.921Z,90.26
2019-05-06T04:58:28.513Z,90.27
2019-05-06T05:00:54.697Z,90.03
2019-05-06T05:03:22.778Z,89.89
2019-05-06T05:05:48.282Z,90.13
2019-05-06T05:08:14.087Z,89.82
2019-05-06T05:10:43.206Z,89.62
2019-05-06T05:13:23.103Z,89.63
2019-05-06T05:16:08.692Z,89.16
2019-05-06T05:18:36.388Z,89.08
2019-05-06T05:21:02.507Z,89.05
2019-05-06T05:23:28.294Z,89.44
2019-05-06T05:25:54.068Z,89.36
2019-05-06T05:28:19.872Z,89.10
2019-05-06T05:30:45.763Z,89.43
2019-05-06T05:33:12.240Z,89.01
2019-05-06T05:35:38.449Z,88.90
2019-05-06T05:38:04.234Z,88.71
2019-05-06T05:40:32.075Z,88.93
2019-05-06T05:43:03.512Z,88.92
2019-05-06T05:45:29.312Z,89.03
2019-05-06T05:47:56.992Z,88.98
2019-05-06T05:50:24.985Z,89.02
2019-05-06T05:52:51.984Z,88.63
2019-05-06T05:55:17.883Z,88.44
2019-05-06T05:57:43.664Z,88.52
2019-05-06T06:00:09.757Z,88.92
2019-05-06T06:02:35.543Z,89.12
2019-05-06T06:05:02.509Z,89.08
2019-05-06T06:07:28.419Z,89.18
2019-05-06T06:09:58.916Z,88.67
2019-05-06T06:12:24.797Z,88.63
2019-05-06T06:14:56.330Z,88.98
2019-05-06T06:17:36.025Z,88.29
2019-05-06T06:20:22.607Z,88.95
2019-05-06T06:22:48.385Z,88.47
2019-05-06T06:25:14.380Z,87.90
2019-05-06T06:27:47.987Z,87.92
2019-05-06T06:30:13.907Z,87.66
2019-05-06T06:32:41.843Z,86.73
2019-05-06T06:35:15.428Z,86.56
2019-05-06T06:37:49.281Z,86.74
2019-05-06T06:40:17.184Z,86.66
2019-05-06T06:42:44.898Z,86.80
2019-05-06T06:45:12.284Z,86.60
2019-05-06T06:47:38.180Z,87.34
2019-05-06T06:50:04.159Z,87.12
2019-05-06T06:52:32.411Z,85.95
2019-05-06T06:54:57.740Z,86.42
2019-05-06T06:57:42.434Z,88.40
2019-05-06T07:00:12.360Z,88.17
2019-05-06T07:02:43.135Z,86.14
2019-05-06T07:05:24.832Z,86.14
2019-05-06T07:07:47.134Z,84.05
2019-05-06T07:10:29.201Z,82.25
2019-05-06T07:12:55.002Z,82.67
2019-05-06T07:15:22.216Z,82.50
2019-05-06T07:17:48.084Z,82.57
2019-05-06T07:20:15.768Z,82.21
2019-05-06T07:22:42.410Z,80.70
2019-05-06T07:25:08.579Z,80.70
2019-05-06T07:27:34.383Z,81.56
2019-05-06T07:30:02.827Z,80.65
2019-05-06T07:32:27.875Z,80.86
2019-05-06T07:34:53.659Z,80.79
2019-05-06T07:37:21.969Z,81.00
2019-05-06T07:39:47.328Z,80.16
2019-05-06T07:42:15.005Z,80.16
2019-05-06T07:44:42.717Z,80.64
2019-05-06T07:47:16.247Z,79.02
2019-05-06T07:49:43.242Z,79.02
2019-05-06T07:52:09.452Z,77.70
2019-05-06T07:54:35.520Z,76.10
2019-05-06T07:57:02.368Z,76.09
2019-05-06T07:59:28.389Z,76.09
2019-05-06T08:01:54.247Z,74.08
2019-05-06T08:04:23.041Z,72.25
2019-05-06T08:06:49.526Z,71.90
2019-05-06T08:09:17.337Z,69.37
2019-05-06T08:11:43.120Z,67.30
2019-05-06T08:14:08.924Z,67.55
2019-05-06T08:16:36.604Z,67.98
2019-05-06T08:19:02.827Z,63.93
2019-05-06T08:21:36.045Z,63.93
2019-05-06T08:24:02.765Z,62.93
2019-05-06T08:26:28.634Z,62.67
2019-05-06T08:28:54.428Z,63.95
2019-05-06T08:31:22.339Z,66.02
2019-05-06T08:33:48.401Z,68.37
2019-05-06T08:36:16.892Z,69.76
2019-05-06T08:38:53.661Z,73.39
2019-05-06T08:41:19.453Z,73.39
2019-05-06T08:43:45.282Z,74.78
2019-05-06T08:46:12.606Z,74.43
2019-05-06T08:48:38.865Z,70.67
2019-05-06T08:51:13.074Z,71.19
2019-05-06T08:53:42.450Z,71.19
2019-05-06T08:56:12.669Z,68.54
2019-05-06T08:58:44.826Z,65.82
2019-05-06T09:01:12.532Z,63.70
2019-05-06T09:03:38.413Z,59.75
2019-05-06T09:06:07.417Z,57.86
2019-05-06T09:08:32.501Z,55.74
2019-05-06T09:10:59.536Z,56.33
2019-05-06T09:13:25.317Z,56.06
2019-05-06T09:15:52.488Z,57.30
2019-05-06T09:18:18.406Z,54.18
2019-05-06T09:20:44.222Z,53.31
2019-05-06T09:23:12.287Z,50.54
2019-05-06T09:25:37.696Z,50.10
2019-05-06T09:28:05.386Z,49.63
2019-05-06T09:30:33.676Z,50.76
2019-05-06T09:32:59.458Z,51.81
2019-05-06T09:35:25.251Z,53.55
2019-05-06T09:37:53.261Z,53.77
2019-05-06T09:40:18.728Z,53.07
2019-05-06T09:42:44.512Z,53.08
2019-05-06T09:45:12.519Z,54.94
2019-05-06T09:47:48.835Z,56.16
2019-05-06T09:50:18.740Z,57.23
2019-05-06T09:52:44.542Z,57.29
2019-05-06T09:55:13.970Z,58.49
2019-05-06T09:58:03.530Z,60.08
2019-05-06T10:00:32.958Z,62.74
2019-05-06T10:02:58.910Z,62.52
2019-05-06T10:05:24.704Z,61.02
2019-05-06T10:07:52.378Z,60.73
2019-05-06T10:10:18.181Z,59.04
2019-05-06T10:12:44.032Z,58.41
2019-05-06T10:15:12.602Z,59.33
2019-05-06T10:17:38.017Z,63.25
2019-05-06T10:20:04.788Z,65.37
2019-05-06T10:22:32.692Z,66.86
2019-05-06T10:24:58.515Z,67.20
2019-05-06T10:27:24.310Z,67.61
2019-05-06T10:30:03.156Z,67.14
2019-05-06T10:32:33.106Z,64.25
2019-05-06T10:34:58.889Z,60.89
2019-05-06T10:37:33.521Z,60.03
2019-05-06T10:40:15.143Z,56.45
2019-05-06T10:42:47.791Z,56.88
2019-05-06T10:45:25.390Z,55.72
2019-05-06T10:47:51.204Z,55.77
2019-05-06T10:50:16.985Z,54.96
2019-05-06T10:53:02.898Z,52.96
2019-05-06T10:55:29.328Z,52.51
2019-05-06T10:57:55.124Z,51.34
2019-05-06T11:00:23.124Z,52.53
2019-05-06T11:03:07.212Z,53.26
2019-05-06T11:05:32.996Z,51.39
2019-05-06T11:07:58.787Z,51.26
2019-05-06T11:10:28.564Z,51.90
2019-05-06T11:12:52.430Z,53.34
2019-05-06T11:15:18.249Z,50.06
2019-05-06T11:17:44.053Z,48.20
2019-05-06T11:20:11.410Z,47.40
2019-05-06T11:22:37.736Z,47.50
2019-05-06T11:25:04.015Z,47.75
2019-05-06T11:27:32.650Z,47.11
2019-05-06T11:29:59.399Z,45.07
2019-05-06T11:32:27.076Z,48.15
2019-05-06T11:35:03.905Z,46.77
2019-05-06T11:37:47.049Z,48.54
2019-05-06T11:40:08.489Z,48.62
2019-05-06T11:42:35.946Z,47.97
2019-05-06T11:45:04.260Z,49.31
2019-05-06T11:47:32.335Z,47.78
2019-05-06T11:49:58.360Z,49.51
2019-05-06T11:52:24.752Z,49.67
2019-05-06T11:54:52.765Z,48.92
2019-05-06T11:57:18.227Z,48.77
2019-05-06T11:59:44.029Z,48.12
2019-05-06T12:02:14.602Z,48.67
2019-05-06T12:04:41.922Z,49.86
2019-05-06T12:07:11.059Z,51.18
2019-05-06T12:09:35.608Z,51.17
2019-05-06T12:12:03.324Z,51.82
2019-05-06T12:14:29.082Z,52.92
2019-05-06T12:16:55.288Z,52.02
2019-05-06T12:19:22.522Z,52.87
2019-05-06T12:21:51.098Z,51.11
2019-05-06T12:24:16.889Z,51.51
2019-05-06T12:26:43.003Z,51.99
2019-05-06T12:29:08.871Z,52.56
2019-05-06T12:31:34.748Z,52.62
2019-05-06T12:34:02.647Z,50.35
2019-05-06T12:36:28.317Z,49.09
2019-05-06T12:39:17.491Z,48.70
2019-05-06T12:41:43.713Z,49.60
2019-05-06T12:44:09.508Z,49.91
2019-05-06T12:46:46.081Z,50.67
2019-05-06T12:49:12.748Z,52.17
2019-05-06T12:51:38.695Z,53.28
2019-05-06T12:54:04.481Z,52.30
2019-05-06T12:56:30.477Z,52.12
2019-05-06T12:58:56.265Z,51.94
2019-05-06T13:01:22.063Z,52.27
2019-05-06T13:03:47.843Z,53.03
2019-05-06T13:06:13.671Z,54.56
2019-05-06T13:08:53.937Z,53.64
2019-05-06T13:11:07.123Z,51.77
2019-05-06T13:13:33.282Z,51.42
2019-05-06T13:15:59.115Z,51.17
2019-05-06T13:18:24.901Z,49.29
2019-05-06T13:20:52.230Z,47.45
2019-05-06T13:23:25.685Z,48.16
2019-05-06T13:25:52.596Z,48.33
2019-05-06T13:28:22.233Z,47.86
2019-05-06T13:30:47.885Z,45.63
2019-05-06T13:33:21.454Z,47.28
2019-05-06T13:35:47.238Z,45.32
2019-05-06T13:38:13.018Z,45.34
2019-05-06T13:40:52.874Z,46.11
2019-05-06T13:43:12.924Z,45.83
2019-05-06T13:45:43.292Z,44.06
2019-05-06T13:48:13.905Z,43.26
2019-05-06T13:50:41.947Z,43.58
2019-05-06T13:53:11.633Z,44.25
2019-05-06T13:55:35.527Z,44.75
2019-05-06T13:58:03.307Z,44.57
2019-05-06T14:00:29.676Z,44.81
2019-05-06T14:02:56.792Z,44.48
2019-05-06T14:05:22.577Z,46.41
2019-05-06T14:07:48.391Z,47.68
2019-05-06T14:10:14.457Z,48.46
2019-05-06T14:12:42.418Z,48.82
2019-05-06T14:15:08.250Z,48.35
2019-05-06T14:17:34.059Z,48.48
2019-05-06T14:19:59.839Z,50.42
2019-05-06T14:22:25.724Z,53.49
2019-05-06T14:24:53.448Z,53.66
2019-05-06T14:27:19.456Z,53.47
2019-05-06T14:30:04.486Z,54.30
2019-05-06T14:32:29.787Z,54.70
2019-05-06T14:34:55.563Z,54.82
2019-05-06T14:37:22.591Z,55.02
2019-05-06T14:39:58.146Z,54.75
2019-05-06T14:42:18.156Z,53.93
2019-05-06T14:44:43.946Z,54.08
2019-05-06T14:47:12.624Z,53.80
2019-05-06T14:49:38.547Z,53.53
2019-05-06T14:52:08.355Z,53.77
2019-05-06T14:54:36.042Z,54.08
2019-05-06T14:57:06.480Z,51.86
2019-05-06T14:59:32.910Z,51.58
2019-05-06T15:01:58.768Z,50.08
2019-05-06T15:04:24.569Z,49.14
2019-05-06T15:06:50.357Z,47.65
2019-05-06T15:09:16.434Z,47.54
2019-05-06T15:11:43.418Z,46.60
2019-05-06T15:14:09.662Z,47.76
2019-05-06T15:16:35.437Z,46.66
2019-05-06T15:19:03.979Z,46.12
2019-05-06T15:21:37.465Z,46.24
2019-05-06T15:23:57.058Z,44.74
2019-05-06T15:26:23.002Z,45.62
2019-05-06T15:28:49.145Z,45.71
2019-05-06T15:31:20.190Z,44.79
2019-05-06T15:33:56.768Z,42.87
2019-05-06T15:36:30.024Z,42.94
2019-05-06T15:38:56.139Z,43.17
2019-05-06T15:41:22.384Z,43.33
2019-05-06T15:43:48.532Z,44.36
2019-05-06T15:46:14.339Z,43.85
2019-05-06T15:48:42.018Z,44.66
2019-05-06T15:51:08.163Z,43.64
2019-05-06T15:53:33.946Z,43.91
2019-05-06T15:55:59.921Z,44.19
2019-05-06T15:58:25.719Z,45.95
2019-05-06T16:00:53.103Z,46.15
2019-05-06T16:03:19.120Z,46.12
2019-05-06T16:05:45.124Z,47.10
2019-05-06T16:08:10.925Z,47.41
2019-05-06T16:10:51.316Z,47.88
2019-05-06T16:13:04.424Z,48.99
2019-05-06T16:15:33.747Z,49.34
2019-05-06T16:18:02.431Z,51.07
2019-05-06T16:20:28.590Z,52.20
2019-05-06T16:23:07.704Z,51.92
2019-05-06T16:25:33.508Z,51.92
2019-05-06T16:27:59.295Z,52.48
2019-05-06T16:30:25.097Z,53.03
2019-05-06T16:32:52.704Z,52.81
2019-05-06T16:35:18.695Z,52.69
2019-05-06T16:37:44.480Z,52.69
2019-05-06T16:40:12.364Z,51.36
2019-05-06T16:42:38.074Z,50.51
2019-05-06T16:45:06.861Z,51.04
2019-05-06T16:47:36.320Z,50.83
2019-05-06T16:50:06.708Z,50.85
2019-05-06T16:52:33.341Z,51.22
2019-05-06T16:54:59.602Z,51.35
2019-05-06T16:57:25.398Z,51.68
2019-05-06T16:59:52.216Z,50.91
2019-05-06T17:02:19.996Z,50.17
2019-05-06T17:04:47.690Z,50.32
2019-05-06T17:07:13.517Z,50.34
2019-05-06T17:09:39.298Z,50.34
2019-05-06T17:12:05.098Z,50.05
2019-05-06T17:14:32.512Z,49.66
2019-05-06T17:16:58.401Z,49.34
2019-05-06T17:19:24.189Z,49.90
2019-05-06T17:21:52.284Z,50.00
2019-05-06T17:24:17.676Z,50.41
2019-05-06T17:26:43.481Z,50.60
2019-05-06T17:29:23.106Z,51.58
2019-05-06T17:31:51.161Z,52.83
2019-05-06T17:34:19.052Z,52.82
2019-05-06T17:36:44.981Z,52.82
2019-05-06T17:39:11.263Z,51.64
2019-05-06T17:41:46.024Z,52.44
2019-05-06T17:44:05.073Z,52.44
2019-05-06T17:46:33.358Z,52.92
2019-05-06T17:49:06.738Z,52.92
2019-05-06T17:51:37.278Z,52.79
2019-05-06T17:54:03.450Z,52.79
2019-05-06T17:56:29.246Z,53.66
2019-05-06T17:58:55.140Z,53.72
2019-05-06T18:01:23.377Z,54.21
2019-05-06T18:03:49.229Z,54.65
2019-05-06T18:06:15.017Z,55.48
2019-05-06T18:08:43.158Z,55.74
2019-05-06T18:11:08.516Z,55.76
2019-05-06T18:13:34.313Z,55.70
2019-05-06T18:16:00.101Z,55.66
2019-05-06T18:18:28.918Z,56.17
2019-05-06T18:20:53.594Z,57.05
2019-05-06T18:23:19.401Z,57.58
2019-05-06T18:25:45.189Z,57.74
2019-05-06T18:28:12.233Z,57.69
2019-05-06T18:30:38.181Z,56.48
2019-05-06T18:33:03.978Z,56.48
2019-05-06T18:35:29.861Z,57.30
2019-05-06T18:37:55.692Z,57.11
2019-05-06T18:40:23.244Z,57.37
2019-05-06T18:42:49.082Z,57.63
2019-05-06T18:45:14.985Z,58.00
2019-05-06T18:47:42.223Z,58.31
2019-05-06T18:50:08.584Z,58.49
2019-05-06T18:52:34.375Z,58.87
2019-05-06T18:55:00.173Z,59.21
2019-05-06T18:57:25.971Z,59.36
2019-05-06T18:59:53.306Z,59.57
2019-05-06T19:02:19.349Z,60.03
2019-05-06T19:04:47.047Z,60.38
2019-05-06T19:07:16.864Z,60.88
2019-05-06T19:09:42.587Z,61.26
2019-05-06T19:12:08.359Z,61.23
2019-05-06T19:14:34.165Z,61.54
2019-05-06T19:17:02.582Z,62.10
2019-05-06T19:19:27.656Z,62.11
2019-05-06T19:21:53.438Z,62.20
2019-05-06T19:24:19.233Z,62.36
2019-05-06T19:26:45.017Z,62.46
2019-05-06T19:29:12.251Z,62.62
2019-05-06T19:31:38.248Z,62.55
2019-05-06T19:34:04.132Z,62.96
2019-05-06T19:36:34.141Z,63.46
2019-05-06T19:38:57.633Z,63.64
2019-05-06T19:41:23.430Z,64.06
2019-05-06T19:43:49.224Z,64.43
2019-05-06T19:46:15.018Z,64.74
2019-05-06T19:48:43.045Z,64.66
2019-05-06T19:51:08.662Z,64.93
2019-05-06T19:53:34.449Z,65.22
2019-05-06T19:56:02.608Z,65.16
2019-05-06T19:58:27.934Z,65.59
2019-05-06T20:00:56.341Z,66.32
2019-05-06T20:03:23.121Z,66.32
2019-05-06T20:05:54.406Z,66.44
2019-05-06T20:08:27.905Z,66.26
2019-05-06T20:10:58.364Z,66.64
2019-05-06T20:13:24.155Z,67.05
2019-05-06T20:15:52.056Z,67.10
2019-05-06T20:18:17.651Z,67.44
2019-05-06T20:20:44.179Z,67.78
2019-05-06T20:23:12.318Z,67.50
2019-05-06T20:25:37.655Z,67.96
2019-05-06T20:28:04.533Z,68.96
2019-05-06T20:30:32.688Z,69.20
2019-05-06T20:32:59.249Z,69.66
2019-05-06T20:35:25.036Z,70.15
2019-05-06T20:37:53.243Z,69.84
2019-05-06T20:40:19.122Z,70.56
2019-05-06T20:42:45.414Z,70.41
2019-05-06T20:45:12.878Z,70.34
2019-05-06T20:47:38.726Z,70.26
2019-05-06T20:50:05.220Z,70.67
2019-05-06T20:52:33.049Z,70.69
2019-05-06T20:54:58.984Z,70.53
2019-05-06T20:57:24.778Z,71.06
2019-05-06T20:59:52.566Z,71.01
2019-05-06T21:02:18.309Z,71.83
2019-05-06T21:04:44.388Z,71.42
2019-05-06T21:07:12.222Z,71.72
2019-05-06T21:09:37.882Z,72.31
2019-05-06T21:12:03.677Z,72.22
2019-05-06T21:14:29.466Z,71.84
2019-05-06T21:16:55.257Z,72.11
2019-05-06T21:19:22.255Z,72.60
2019-05-06T21:21:49.156Z,72.24
2019-05-06T21:24:15.217Z,72.81
2019-05-06T21:26:42.898Z,72.79
2019-05-06T21:29:09.285Z,72.86
2019-05-06T21:31:35.064Z,72.86
2019-05-06T21:34:00.870Z,73.31
2019-05-06T21:36:26.810Z,73.67
2019-05-06T21:38:52.603Z,73.40
2019-05-06T21:41:18.381Z,73.33
2019-05-06T21:43:49.687Z,73.31
2019-05-06T21:46:13.109Z,73.34
2019-05-06T21:48:38.947Z,74.07
2019-05-06T21:51:04.732Z,74.07
2019-05-06T21:53:32.621Z,74.20
2019-05-06T21:55:58.591Z,74.31
2019-05-06T21:58:24.390Z,74.71
2019-05-06T22:00:55.430Z,74.46
2019-05-06T22:03:22.988Z,74.33
2019-05-06T22:05:49.029Z,74.59
2019-05-06T22:08:15.330Z,74.61
2019-05-06T22:10:42.167Z,75.33
2019-05-06T22:13:08.104Z,74.95
2019-05-06T22:15:33.902Z,74.54
2019-05-06T22:17:59.681Z,74.35
2019-05-06T22:20:25.486Z,74.54
2019-05-06T22:22:52.097Z,74.73
2019-05-06T22:25:17.977Z,74.70
2019-05-06T22:27:44.574Z,75.21
2019-05-06T22:30:10.761Z,75.09
2019-05-06T22:32:45.221Z,75.37
2019-05-06T22:35:12.418Z,75.41
2019-05-06T22:37:38.207Z,75.80
2019-05-06T22:40:05.395Z,75.56
2019-05-06T22:42:32.245Z,75.33
2019-05-06T22:44:58.183Z,75.53
2019-05-06T22:47:23.969Z,75.69
2019-05-06T22:49:49.783Z,76.03
2019-05-06T22:52:15.564Z,76.01
2019-05-06T22:54:43.325Z,76.02
2019-05-06T22:57:09.053Z,75.83
2019-05-06T22:59:34.844Z,76.43
2019-05-06T23:02:05.133Z,76.26
2019-05-06T23:04:32.848Z,76.74
2019-05-06T23:06:58.632Z,76.69
2019-05-06T23:09:25.037Z,76.44
2019-05-06T23:11:50.924Z,76.64
2019-05-06T23:14:27.886Z,76.88
2019-05-06T23:16:44.404Z,76.61
2019-05-06T23:19:10.191Z,77.18
2019-05-06T23:21:35.986Z,76.70
2019-05-06T23:24:02.200Z,76.60
2019-05-06T23:26:28.073Z,76.94
2019-05-06T23:28:53.861Z,77.12
2019-05-06T23:31:21.995Z,77.04
2019-05-06T23:33:47.844Z,77.54
2019-05-06T23:36:13.743Z,77.44
2019-05-06T23:39:16.528Z,77.40
2019-05-06T23:42:19.191Z,77.52
2019-05-06T23:45:22.859Z,77.79
2019-05-06T23:48:25.616Z,77.75
2019-05-06T23:51:28.589Z,77.88
2019-05-06T23:54:32.847Z,78.39
2019-05-06T23:56:58.517Z,78.09
2019-05-06T23:59:24.305Z,78.02
